sensor_id;sensor_type;location;lat;lon;timestamp;P1;durP1;ratioP1;P2;durP2;ratioP2
52618;SDS011;38513;53.234;6.568;2022-11-21T00:01:33;29.65;;;21.15;;
52618;SDS011;38513;53.234;6.568;2022-11-21T00:03:59;26.75;;;19.75;;
52618;SDS011;38513;53.234;6.568;2022-11-21T00:06:25;28.17;;;20.95;;
52618;SDS011;38513;53.234;6.568;2022-11-21T00:08:51;28.33;;;20.10;;
52618;SDS011;38513;53.234;6.568;2022-11-21T00:11:17;27.08;;;20.02;;
52618;SDS011;38513;53.234;6.568;2022-11-21T00:13:43;30.02;;;21.48;;
52618;SDS011;38513;53.234;6.568;2022-11-21T00:16:11;29.67;;;20.70;;
52618;SDS011;38513;53.234;6.568;2022-11-21T00:18:37;27.80;;;20.43;;
52618;SDS011;38513;53.234;6.568;2022-11-21T00:21:04;26.45;;;19.90;;
52618;SDS011;38513;53.234;6.568;2022-11-21T00:23:30;28.13;;;20.30;;
52618;SDS011;38513;53.234;6.568;2022-11-21T00:25:56;27.92;;;20.95;;
52618;SDS011;38513;53.234;6.568;2022-11-21T00:28:22;28.92;;;20.20;;
52618;SDS011;38513;53.234;6.568;2022-11-21T00:30:48;27.30;;;20.05;;
52618;SDS011;38513;53.234;6.568;2022-11-21T00:33:17;28.13;;;20.38;;
52618;SDS011;38513;53.234;6.568;2022-11-21T00:35:43;29.25;;;21.17;;
52618;SDS011;38513;53.234;6.568;2022-11-21T00:38:12;30.27;;;21.20;;
52618;SDS011;38513;53.234;6.568;2022-11-21T00:40:38;27.55;;;21.00;;
52618;SDS011;38513;53.234;6.568;2022-11-21T00:43:04;27.73;;;20.33;;
52618;SDS011;38513;53.234;6.568;2022-11-21T00:45:30;31.13;;;21.58;;
52618;SDS011;38513;53.234;6.568;2022-11-21T00:47:56;28.83;;;20.67;;
52618;SDS011;38513;53.234;6.568;2022-11-21T00:50:22;32.05;;;21.88;;
52618;SDS011;38513;53.234;6.568;2022-11-21T00:52:52;28.48;;;20.55;;
52618;SDS011;38513;53.234;6.568;2022-11-21T00:55:19;28.25;;;20.45;;
52618;SDS011;38513;53.234;6.568;2022-11-21T00:57:48;27.40;;;20.85;;
52618;SDS011;38513;53.234;6.568;2022-11-21T01:00:17;29.00;;;21.05;;
52618;SDS011;38513;53.234;6.568;2022-11-21T01:02:44;28.73;;;21.35;;
52618;SDS011;38513;53.234;6.568;2022-11-21T01:05:10;29.45;;;20.92;;
52618;SDS011;38513;53.234;6.568;2022-11-21T01:07:36;30.40;;;22.10;;
52618;SDS011;38513;53.234;6.568;2022-11-21T01:10:02;29.33;;;21.58;;
52618;SDS011;38513;53.234;6.568;2022-11-21T01:12:28;30.63;;;21.48;;
52618;SDS011;38513;53.234;6.568;2022-11-21T01:14:56;27.45;;;21.05;;
52618;SDS011;38513;53.234;6.568;2022-11-21T01:17:22;31.27;;;22.30;;
52618;SDS011;38513;53.234;6.568;2022-11-21T01:19:48;31.23;;;22.83;;
52618;SDS011;38513;53.234;6.568;2022-11-21T01:22:14;29.67;;;22.07;;
52618;SDS011;38513;53.234;6.568;2022-11-21T01:24:40;31.65;;;22.35;;
52618;SDS011;38513;53.234;6.568;2022-11-21T01:27:06;30.83;;;22.40;;
52618;SDS011;38513;53.234;6.568;2022-11-21T01:29:32;30.10;;;22.00;;
52618;SDS011;38513;53.234;6.568;2022-11-21T01:31:58;30.40;;;22.15;;
52618;SDS011;38513;53.234;6.568;2022-11-21T01:34:24;32.97;;;23.27;;
52618;SDS011;38513;53.234;6.568;2022-11-21T01:36:50;31.70;;;22.20;;
52618;SDS011;38513;53.234;6.568;2022-11-21T01:39:16;31.10;;;22.17;;
52618;SDS011;38513;53.234;6.568;2022-11-21T01:41:43;31.65;;;22.83;;
52618;SDS011;38513;53.234;6.568;2022-11-21T01:46:42;32.42;;;23.15;;
52618;SDS011;38513;53.234;6.568;2022-11-21T01:49:09;32.35;;;23.58;;
52618;SDS011;38513;53.234;6.568;2022-11-21T01:51:38;33.20;;;23.15;;
52618;SDS011;38513;53.234;6.568;2022-11-21T01:54:07;33.38;;;23.75;;
52618;SDS011;38513;53.234;6.568;2022-11-21T01:56:38;33.35;;;23.73;;
52618;SDS011;38513;53.234;6.568;2022-11-21T01:59:05;33.00;;;23.15;;
52618;SDS011;38513;53.234;6.568;2022-11-21T02:01:34;32.63;;;23.55;;
52618;SDS011;38513;53.234;6.568;2022-11-21T02:04:01;31.88;;;23.80;;
52618;SDS011;38513;53.234;6.568;2022-11-21T02:06:27;35.00;;;23.95;;
52618;SDS011;38513;53.234;6.568;2022-11-21T02:08:54;32.55;;;23.38;;
52618;SDS011;38513;53.234;6.568;2022-11-21T02:11:34;34.78;;;24.13;;
52618;SDS011;38513;53.234;6.568;2022-11-21T02:14:01;33.63;;;24.27;;
52618;SDS011;38513;53.234;6.568;2022-11-21T02:16:27;36.03;;;24.67;;
52618;SDS011;38513;53.234;6.568;2022-11-21T02:18:53;33.13;;;24.27;;
52618;SDS011;38513;53.234;6.568;2022-11-21T02:21:22;34.45;;;24.88;;
52618;SDS011;38513;53.234;6.568;2022-11-21T02:24:36;33.88;;;24.60;;
52618;SDS011;38513;53.234;6.568;2022-11-21T02:26:36;36.00;;;25.20;;
52618;SDS011;38513;53.234;6.568;2022-11-21T02:29:03;36.70;;;25.92;;
52618;SDS011;38513;53.234;6.568;2022-11-21T02:31:29;35.85;;;25.83;;
52618;SDS011;38513;53.234;6.568;2022-11-21T02:33:55;36.95;;;26.35;;
52618;SDS011;38513;53.234;6.568;2022-11-21T02:36:41;37.40;;;26.02;;
52618;SDS011;38513;53.234;6.568;2022-11-21T02:39:13;36.20;;;26.05;;
52618;SDS011;38513;53.234;6.568;2022-11-21T02:41:43;36.58;;;25.90;;
52618;SDS011;38513;53.234;6.568;2022-11-21T02:44:15;37.30;;;26.20;;
52618;SDS011;38513;53.234;6.568;2022-11-21T02:46:46;36.53;;;25.85;;
52618;SDS011;38513;53.234;6.568;2022-11-21T02:49:18;37.17;;;26.58;;
52618;SDS011;38513;53.234;6.568;2022-11-21T02:51:46;36.63;;;26.65;;
52618;SDS011;38513;53.234;6.568;2022-11-21T02:54:13;39.23;;;26.77;;
52618;SDS011;38513;53.234;6.568;2022-11-21T02:56:39;37.83;;;27.00;;
52618;SDS011;38513;53.234;6.568;2022-11-21T02:59:05;39.75;;;27.30;;
52618;SDS011;38513;53.234;6.568;2022-11-21T03:01:31;39.10;;;27.92;;
52618;SDS011;38513;53.234;6.568;2022-11-21T03:03:57;37.55;;;27.10;;
52618;SDS011;38513;53.234;6.568;2022-11-21T03:06:23;40.33;;;28.67;;
52618;SDS011;38513;53.234;6.568;2022-11-21T03:08:49;38.45;;;27.83;;
52618;SDS011;38513;53.234;6.568;2022-11-21T03:11:15;40.25;;;28.27;;
52618;SDS011;38513;53.234;6.568;2022-11-21T03:13:41;39.25;;;27.85;;
52618;SDS011;38513;53.234;6.568;2022-11-21T03:16:08;39.15;;;27.60;;
52618;SDS011;38513;53.234;6.568;2022-11-21T03:18:34;40.60;;;28.33;;
52618;SDS011;38513;53.234;6.568;2022-11-21T03:21:00;37.47;;;27.63;;
52618;SDS011;38513;53.234;6.568;2022-11-21T03:23:26;39.72;;;27.73;;
52618;SDS011;38513;53.234;6.568;2022-11-21T03:25:52;39.47;;;28.33;;
52618;SDS011;38513;53.234;6.568;2022-11-21T03:28:18;40.90;;;28.48;;
52618;SDS011;38513;53.234;6.568;2022-11-21T03:30:44;38.83;;;28.02;;
52618;SDS011;38513;53.234;6.568;2022-11-21T03:33:11;38.83;;;27.63;;
52618;SDS011;38513;53.234;6.568;2022-11-21T03:35:37;41.67;;;28.88;;
52618;SDS011;38513;53.234;6.568;2022-11-21T03:38:04;42.28;;;28.67;;
52618;SDS011;38513;53.234;6.568;2022-11-21T03:40:30;42.83;;;28.23;;
52618;SDS011;38513;53.234;6.568;2022-11-21T03:42:56;42.50;;;29.45;;
52618;SDS011;38513;53.234;6.568;2022-11-21T03:45:22;41.72;;;29.42;;
52618;SDS011;38513;53.234;6.568;2022-11-21T03:47:51;43.00;;;29.60;;
52618;SDS011;38513;53.234;6.568;2022-11-21T03:50:17;41.95;;;29.67;;
52618;SDS011;38513;53.234;6.568;2022-11-21T03:52:45;38.95;;;27.73;;
52618;SDS011;38513;53.234;6.568;2022-11-21T03:55:11;44.13;;;29.30;;
52618;SDS011;38513;53.234;6.568;2022-11-21T03:57:39;41.33;;;28.75;;
52618;SDS011;38513;53.234;6.568;2022-11-21T04:00:05;42.38;;;28.13;;
52618;SDS011;38513;53.234;6.568;2022-11-21T04:02:31;38.88;;;27.60;;
52618;SDS011;38513;53.234;6.568;2022-11-21T04:04:57;41.60;;;28.85;;
52618;SDS011;38513;53.234;6.568;2022-11-21T04:07:23;43.58;;;29.23;;
52618;SDS011;38513;53.234;6.568;2022-11-21T04:09:50;43.63;;;30.55;;
52618;SDS011;38513;53.234;6.568;2022-11-21T04:12:16;43.47;;;29.77;;
52618;SDS011;38513;53.234;6.568;2022-11-21T04:14:42;43.38;;;29.52;;
52618;SDS011;38513;53.234;6.568;2022-11-21T04:17:08;45.30;;;30.55;;
52618;SDS011;38513;53.234;6.568;2022-11-21T04:19:34;46.97;;;30.83;;
52618;SDS011;38513;53.234;6.568;2022-11-21T04:22:00;44.88;;;31.23;;
52618;SDS011;38513;53.234;6.568;2022-11-21T04:24:26;43.92;;;30.73;;
52618;SDS011;38513;53.234;6.568;2022-11-21T04:26:53;44.85;;;31.45;;
52618;SDS011;38513;53.234;6.568;2022-11-21T04:29:22;46.65;;;31.30;;
52618;SDS011;38513;53.234;6.568;2022-11-21T04:31:48;45.13;;;30.50;;
52618;SDS011;38513;53.234;6.568;2022-11-21T04:34:15;42.83;;;30.07;;
52618;SDS011;38513;53.234;6.568;2022-11-21T04:36:41;45.33;;;30.48;;
52618;SDS011;38513;53.234;6.568;2022-11-21T04:39:10;45.35;;;31.10;;
52618;SDS011;38513;53.234;6.568;2022-11-21T04:41:36;45.25;;;30.60;;
52618;SDS011;38513;53.234;6.568;2022-11-21T04:44:02;45.22;;;30.02;;
52618;SDS011;38513;53.234;6.568;2022-11-21T04:46:28;44.72;;;30.70;;
52618;SDS011;38513;53.234;6.568;2022-11-21T04:48:54;43.92;;;29.95;;
52618;SDS011;38513;53.234;6.568;2022-11-21T04:51:20;42.78;;;30.60;;
52618;SDS011;38513;53.234;6.568;2022-11-21T04:53:46;42.40;;;29.55;;
52618;SDS011;38513;53.234;6.568;2022-11-21T04:56:12;41.90;;;28.92;;
52618;SDS011;38513;53.234;6.568;2022-11-21T04:58:41;40.72;;;28.42;;
52618;SDS011;38513;53.234;6.568;2022-11-21T05:01:07;41.22;;;28.70;;
52618;SDS011;38513;53.234;6.568;2022-11-21T05:03:33;42.75;;;28.73;;
52618;SDS011;38513;53.234;6.568;2022-11-21T05:06:00;42.10;;;28.60;;
52618;SDS011;38513;53.234;6.568;2022-11-21T05:08:26;40.25;;;27.48;;
52618;SDS011;38513;53.234;6.568;2022-11-21T05:10:52;40.53;;;27.73;;
52618;SDS011;38513;53.234;6.568;2022-11-21T05:13:37;40.72;;;28.00;;
52618;SDS011;38513;53.234;6.568;2022-11-21T05:16:03;41.33;;;28.45;;
52618;SDS011;38513;53.234;6.568;2022-11-21T05:18:29;42.80;;;28.52;;
52618;SDS011;38513;53.234;6.568;2022-11-21T05:20:55;41.30;;;28.53;;
52618;SDS011;38513;53.234;6.568;2022-11-21T05:23:21;41.67;;;28.08;;
52618;SDS011;38513;53.234;6.568;2022-11-21T05:25:47;40.67;;;28.65;;
52618;SDS011;38513;53.234;6.568;2022-11-21T05:28:14;39.85;;;28.35;;
52618;SDS011;38513;53.234;6.568;2022-11-21T05:30:40;41.53;;;28.52;;
52618;SDS011;38513;53.234;6.568;2022-11-21T05:33:06;41.35;;;28.70;;
52618;SDS011;38513;53.234;6.568;2022-11-21T05:35:32;40.93;;;28.57;;
52618;SDS011;38513;53.234;6.568;2022-11-21T05:37:58;41.83;;;28.90;;
52618;SDS011;38513;53.234;6.568;2022-11-21T05:40:24;42.53;;;28.70;;
52618;SDS011;38513;53.234;6.568;2022-11-21T05:42:51;42.85;;;29.10;;
52618;SDS011;38513;53.234;6.568;2022-11-21T05:45:36;44.70;;;29.92;;
52618;SDS011;38513;53.234;6.568;2022-11-21T05:48:02;45.08;;;29.67;;
52618;SDS011;38513;53.234;6.568;2022-11-21T05:50:32;45.00;;;30.38;;
52618;SDS011;38513;53.234;6.568;2022-11-21T05:53:04;42.70;;;29.47;;
52618;SDS011;38513;53.234;6.568;2022-11-21T05:55:32;46.85;;;31.88;;
52618;SDS011;38513;53.234;6.568;2022-11-21T05:57:59;44.05;;;31.00;;
52618;SDS011;38513;53.234;6.568;2022-11-21T06:00:25;47.47;;;31.30;;
52618;SDS011;38513;53.234;6.568;2022-11-21T06:02:51;47.47;;;31.42;;
52618;SDS011;38513;53.234;6.568;2022-11-21T06:06:03;47.25;;;31.92;;
52618;SDS011;38513;53.234;6.568;2022-11-21T06:08:31;49.53;;;33.53;;
52618;SDS011;38513;53.234;6.568;2022-11-21T06:10:57;50.00;;;33.25;;
52618;SDS011;38513;53.234;6.568;2022-11-21T06:13:23;50.10;;;33.40;;
52618;SDS011;38513;53.234;6.568;2022-11-21T06:15:51;49.70;;;33.40;;
52618;SDS011;38513;53.234;6.568;2022-11-21T06:18:25;51.70;;;33.83;;
52618;SDS011;38513;53.234;6.568;2022-11-21T06:20:51;50.47;;;33.00;;
52618;SDS011;38513;53.234;6.568;2022-11-21T06:23:20;51.22;;;33.45;;
52618;SDS011;38513;53.234;6.568;2022-11-21T06:25:46;45.33;;;31.30;;
52618;SDS011;38513;53.234;6.568;2022-11-21T06:28:12;46.30;;;31.23;;
52618;SDS011;38513;53.234;6.568;2022-11-21T06:30:38;46.97;;;31.13;;
52618;SDS011;38513;53.234;6.568;2022-11-21T06:33:05;46.17;;;30.07;;
52618;SDS011;38513;53.234;6.568;2022-11-21T06:35:31;42.92;;;28.90;;
52618;SDS011;38513;53.234;6.568;2022-11-21T06:37:57;43.25;;;29.52;;
52618;SDS011;38513;53.234;6.568;2022-11-21T06:40:24;42.85;;;28.70;;
52618;SDS011;38513;53.234;6.568;2022-11-21T06:42:50;43.65;;;28.95;;
52618;SDS011;38513;53.234;6.568;2022-11-21T06:45:16;42.72;;;29.33;;
52618;SDS011;38513;53.234;6.568;2022-11-21T06:47:42;43.83;;;29.03;;
52618;SDS011;38513;53.234;6.568;2022-11-21T06:50:08;46.47;;;31.20;;
52618;SDS011;38513;53.234;6.568;2022-11-21T06:52:35;44.57;;;29.37;;
52618;SDS011;38513;53.234;6.568;2022-11-21T06:55:01;45.10;;;29.67;;
52618;SDS011;38513;53.234;6.568;2022-11-21T06:57:27;46.22;;;30.73;;
52618;SDS011;38513;53.234;6.568;2022-11-21T06:59:56;45.30;;;30.83;;
52618;SDS011;38513;53.234;6.568;2022-11-21T07:02:23;48.10;;;31.90;;
52618;SDS011;38513;53.234;6.568;2022-11-21T07:04:49;50.85;;;32.30;;
52618;SDS011;38513;53.234;6.568;2022-11-21T07:07:19;50.25;;;32.95;;
52618;SDS011;38513;53.234;6.568;2022-11-21T07:09:51;48.90;;;32.45;;
52618;SDS011;38513;53.234;6.568;2022-11-21T07:12:21;52.10;;;34.47;;
52618;SDS011;38513;53.234;6.568;2022-11-21T07:15:24;51.53;;;34.45;;
52618;SDS011;38513;53.234;6.568;2022-11-21T07:17:50;54.30;;;36.28;;
52618;SDS011;38513;53.234;6.568;2022-11-21T07:20:16;56.40;;;36.28;;
52618;SDS011;38513;53.234;6.568;2022-11-21T07:22:42;57.42;;;37.17;;
52618;SDS011;38513;53.234;6.568;2022-11-21T07:25:09;58.05;;;38.05;;
52618;SDS011;38513;53.234;6.568;2022-11-21T07:27:35;58.70;;;37.28;;
52618;SDS011;38513;53.234;6.568;2022-11-21T07:30:01;62.97;;;40.80;;
52618;SDS011;38513;53.234;6.568;2022-11-21T07:32:27;58.93;;;38.20;;
52618;SDS011;38513;53.234;6.568;2022-11-21T07:34:53;60.05;;;38.38;;
52618;SDS011;38513;53.234;6.568;2022-11-21T07:37:19;57.83;;;37.05;;
52618;SDS011;38513;53.234;6.568;2022-11-21T07:39:45;58.45;;;38.75;;
52618;SDS011;38513;53.234;6.568;2022-11-21T07:42:12;59.17;;;38.05;;
52618;SDS011;38513;53.234;6.568;2022-11-21T07:44:38;58.22;;;38.53;;
52618;SDS011;38513;53.234;6.568;2022-11-21T07:47:04;61.22;;;38.90;;
52618;SDS011;38513;53.234;6.568;2022-11-21T07:49:30;62.72;;;39.20;;
52618;SDS011;38513;53.234;6.568;2022-11-21T07:51:57;63.95;;;39.90;;
52618;SDS011;38513;53.234;6.568;2022-11-21T07:54:23;61.83;;;39.67;;
52618;SDS011;38513;53.234;6.568;2022-11-21T07:56:49;63.38;;;40.38;;
52618;SDS011;38513;53.234;6.568;2022-11-21T08:09:26;62.58;;;39.83;;
52618;SDS011;38513;53.234;6.568;2022-11-21T08:11:53;60.28;;;39.33;;
52618;SDS011;38513;53.234;6.568;2022-11-21T08:17:07;59.15;;;38.95;;
52618;SDS011;38513;53.234;6.568;2022-11-21T08:19:36;57.92;;;38.00;;
52618;SDS011;38513;53.234;6.568;2022-11-21T08:22:02;54.43;;;36.07;;
52618;SDS011;38513;53.234;6.568;2022-11-21T08:24:28;52.05;;;35.08;;
52618;SDS011;38513;53.234;6.568;2022-11-21T08:26:57;58.00;;;39.28;;
52618;SDS011;38513;53.234;6.568;2022-11-21T08:29:23;57.50;;;38.55;;
52618;SDS011;38513;53.234;6.568;2022-11-21T08:31:50;47.75;;;32.55;;
52618;SDS011;38513;53.234;6.568;2022-11-21T08:34:17;49.70;;;32.63;;
52618;SDS011;38513;53.234;6.568;2022-11-21T08:36:43;47.15;;;32.47;;
52618;SDS011;38513;53.234;6.568;2022-11-21T08:39:09;48.15;;;31.00;;
52618;SDS011;38513;53.234;6.568;2022-11-21T08:41:36;44.53;;;30.25;;
52618;SDS011;38513;53.234;6.568;2022-11-21T08:44:21;44.45;;;30.48;;
52618;SDS011;38513;53.234;6.568;2022-11-21T08:46:47;44.80;;;30.88;;
52618;SDS011;38513;53.234;6.568;2022-11-21T08:49:13;46.40;;;30.77;;
52618;SDS011;38513;53.234;6.568;2022-11-21T08:51:39;45.08;;;30.83;;
52618;SDS011;38513;53.234;6.568;2022-11-21T08:54:05;44.25;;;30.67;;
52618;SDS011;38513;53.234;6.568;2022-11-21T08:56:33;41.20;;;29.52;;
52618;SDS011;38513;53.234;6.568;2022-11-21T08:58:59;42.85;;;29.88;;
52618;SDS011;38513;53.234;6.568;2022-11-21T09:01:25;41.33;;;29.90;;
52618;SDS011;38513;53.234;6.568;2022-11-21T09:03:51;46.97;;;31.45;;
52618;SDS011;38513;53.234;6.568;2022-11-21T09:06:18;43.97;;;30.95;;
52618;SDS011;38513;53.234;6.568;2022-11-21T09:08:47;43.67;;;30.95;;
52618;SDS011;38513;53.234;6.568;2022-11-21T09:11:13;42.63;;;31.13;;
52618;SDS011;38513;53.234;6.568;2022-11-21T09:13:39;43.70;;;30.55;;
52618;SDS011;38513;53.234;6.568;2022-11-21T09:16:05;42.47;;;30.58;;
52618;SDS011;38513;53.234;6.568;2022-11-21T09:18:53;39.70;;;29.50;;
52618;SDS011;38513;53.234;6.568;2022-11-21T09:21:19;40.97;;;29.25;;
52618;SDS011;38513;53.234;6.568;2022-11-21T09:23:46;38.55;;;27.80;;
52618;SDS011;38513;53.234;6.568;2022-11-21T09:26:12;37.50;;;26.98;;
52618;SDS011;38513;53.234;6.568;2022-11-21T09:28:39;37.75;;;27.80;;
52618;SDS011;38513;53.234;6.568;2022-11-21T09:31:05;36.22;;;26.80;;
52618;SDS011;38513;53.234;6.568;2022-11-21T09:33:32;36.78;;;26.88;;
52618;SDS011;38513;53.234;6.568;2022-11-21T09:35:59;36.22;;;26.25;;
52618;SDS011;38513;53.234;6.568;2022-11-21T09:38:25;36.08;;;25.65;;
52618;SDS011;38513;53.234;6.568;2022-11-21T09:40:59;36.22;;;25.98;;
52618;SDS011;38513;53.234;6.568;2022-11-21T09:44:00;34.42;;;24.52;;
52618;SDS011;38513;53.234;6.568;2022-11-21T09:46:31;33.50;;;24.50;;
52618;SDS011;38513;53.234;6.568;2022-11-21T09:49:00;31.60;;;23.38;;
52618;SDS011;38513;53.234;6.568;2022-11-21T09:51:29;32.53;;;24.00;;
52618;SDS011;38513;53.234;6.568;2022-11-21T09:54:03;33.38;;;24.35;;
52618;SDS011;38513;53.234;6.568;2022-11-21T09:56:30;32.42;;;23.30;;
52618;SDS011;38513;53.234;6.568;2022-11-21T10:02:16;33.22;;;23.92;;
52618;SDS011;38513;53.234;6.568;2022-11-21T10:04:43;32.60;;;23.95;;
52618;SDS011;38513;53.234;6.568;2022-11-21T10:07:16;31.92;;;23.02;;
52618;SDS011;38513;53.234;6.568;2022-11-21T10:17:56;30.23;;;21.85;;
52618;SDS011;38513;53.234;6.568;2022-11-21T10:20:32;30.88;;;22.67;;
52618;SDS011;38513;53.234;6.568;2022-11-21T10:23:05;29.95;;;21.95;;
52618;SDS011;38513;53.234;6.568;2022-11-21T10:25:37;28.35;;;21.13;;
52618;SDS011;38513;53.234;6.568;2022-11-21T10:28:05;29.13;;;22.67;;
52618;SDS011;38513;53.234;6.568;2022-11-21T10:30:33;28.80;;;22.13;;
52618;SDS011;38513;53.234;6.568;2022-11-21T10:33:03;30.50;;;22.93;;
52618;SDS011;38513;53.234;6.568;2022-11-21T10:38:22;29.77;;;22.13;;
52618;SDS011;38513;53.234;6.568;2022-11-21T10:41:02;28.10;;;21.90;;
52618;SDS011;38513;53.234;6.568;2022-11-21T10:43:34;28.00;;;21.02;;
52618;SDS011;38513;53.234;6.568;2022-11-21T10:46:20;30.40;;;22.27;;
52618;SDS011;38513;53.234;6.568;2022-11-21T10:48:48;28.92;;;22.60;;
52618;SDS011;38513;53.234;6.568;2022-11-21T10:51:26;29.48;;;23.10;;
52618;SDS011;38513;53.234;6.568;2022-11-21T10:54:02;28.90;;;22.33;;
52618;SDS011;38513;53.234;6.568;2022-11-21T10:56:48;28.38;;;21.88;;
52618;SDS011;38513;53.234;6.568;2022-11-21T10:59:24;29.15;;;21.83;;
52618;SDS011;38513;53.234;6.568;2022-11-21T11:01:55;28.73;;;20.83;;
52618;SDS011;38513;53.234;6.568;2022-11-21T11:04:25;27.67;;;21.40;;
52618;SDS011;38513;53.234;6.568;2022-11-21T11:06:52;25.75;;;19.23;;
52618;SDS011;38513;53.234;6.568;2022-11-21T11:09:22;24.33;;;18.42;;
52618;SDS011;38513;53.234;6.568;2022-11-21T11:11:48;25.60;;;19.55;;
52618;SDS011;38513;53.234;6.568;2022-11-21T11:14:15;26.45;;;19.77;;
52618;SDS011;38513;53.234;6.568;2022-11-21T11:16:51;22.60;;;17.80;;
52618;SDS011;38513;53.234;6.568;2022-11-21T11:19:19;21.65;;;16.95;;
52618;SDS011;38513;53.234;6.568;2022-11-21T11:21:49;22.08;;;16.05;;
52618;SDS011;38513;53.234;6.568;2022-11-21T11:24:21;19.15;;;14.88;;
52618;SDS011;38513;53.234;6.568;2022-11-21T11:26:52;18.67;;;14.45;;
52618;SDS011;38513;53.234;6.568;2022-11-21T11:29:21;18.98;;;15.18;;
52618;SDS011;38513;53.234;6.568;2022-11-21T11:31:55;19.30;;;14.77;;
52618;SDS011;38513;53.234;6.568;2022-11-21T11:34:22;19.42;;;14.27;;
52618;SDS011;38513;53.234;6.568;2022-11-21T11:44:45;16.05;;;12.90;;
52618;SDS011;38513;53.234;6.568;2022-11-21T11:47:33;17.65;;;12.80;;
52618;SDS011;38513;53.234;6.568;2022-11-21T11:50:07;17.30;;;13.70;;
52618;SDS011;38513;53.234;6.568;2022-11-21T11:55:35;16.52;;;12.98;;
52618;SDS011;38513;53.234;6.568;2022-11-21T11:58:05;19.38;;;13.35;;
52618;SDS011;38513;53.234;6.568;2022-11-21T12:05:25;17.80;;;13.02;;
52618;SDS011;38513;53.234;6.568;2022-11-21T12:10:28;17.55;;;12.40;;
52618;SDS011;38513;53.234;6.568;2022-11-21T12:13:07;18.10;;;13.30;;
52618;SDS011;38513;53.234;6.568;2022-11-21T12:15:37;16.77;;;11.82;;
52618;SDS011;38513;53.234;6.568;2022-11-21T12:20:51;17.67;;;12.00;;
52618;SDS011;38513;53.234;6.568;2022-11-21T12:23:19;17.65;;;12.55;;
52618;SDS011;38513;53.234;6.568;2022-11-21T12:25:52;15.38;;;11.05;;
52618;SDS011;38513;53.234;6.568;2022-11-21T12:28:25;16.90;;;12.00;;
52618;SDS011;38513;53.234;6.568;2022-11-21T12:33:24;17.40;;;11.95;;
52618;SDS011;38513;53.234;6.568;2022-11-21T12:46:35;15.67;;;11.50;;
52618;SDS011;38513;53.234;6.568;2022-11-21T12:49:07;17.10;;;11.82;;
52618;SDS011;38513;53.234;6.568;2022-11-21T12:52:02;17.45;;;12.32;;
52618;SDS011;38513;53.234;6.568;2022-11-21T12:57:15;18.33;;;13.20;;
52618;SDS011;38513;53.234;6.568;2022-11-21T12:59:51;19.98;;;13.93;;
52618;SDS011;38513;53.234;6.568;2022-11-21T13:04:51;20.17;;;14.32;;
52618;SDS011;38513;53.234;6.568;2022-11-21T13:07:18;22.17;;;15.60;;
52618;SDS011;38513;53.234;6.568;2022-11-21T13:09:46;23.38;;;16.90;;
52618;SDS011;38513;53.234;6.568;2022-11-21T13:14:51;20.73;;;15.35;;
52618;SDS011;38513;53.234;6.568;2022-11-21T13:22:47;24.35;;;17.80;;
52618;SDS011;38513;53.234;6.568;2022-11-21T13:36:48;24.65;;;18.33;;
52618;SDS011;38513;53.234;6.568;2022-11-21T13:43:05;23.58;;;17.70;;
52618;SDS011;38513;53.234;6.568;2022-11-21T13:52:13;24.63;;;19.30;;
52618;SDS011;38513;53.234;6.568;2022-11-21T13:55:37;24.02;;;18.58;;
52618;SDS011;38513;53.234;6.568;2022-11-21T14:03:37;26.00;;;19.05;;
52618;SDS011;38513;53.234;6.568;2022-11-21T14:06:09;25.30;;;18.52;;
52618;SDS011;38513;53.234;6.568;2022-11-21T14:08:39;24.50;;;18.15;;
52618;SDS011;38513;53.234;6.568;2022-11-21T14:11:20;32.38;;;25.33;;
52618;SDS011;38513;53.234;6.568;2022-11-21T14:13:47;26.13;;;19.00;;
52618;SDS011;38513;53.234;6.568;2022-11-21T14:18:44;25.52;;;18.33;;
52618;SDS011;38513;53.234;6.568;2022-11-21T14:21:20;26.45;;;18.42;;
52618;SDS011;38513;53.234;6.568;2022-11-21T14:23:47;23.80;;;17.77;;
52618;SDS011;38513;53.234;6.568;2022-11-21T14:26:14;23.80;;;18.35;;
52618;SDS011;38513;53.234;6.568;2022-11-21T14:28:43;24.13;;;18.25;;
52618;SDS011;38513;53.234;6.568;2022-11-21T14:31:12;24.42;;;18.50;;
52618;SDS011;38513;53.234;6.568;2022-11-21T14:33:42;25.05;;;18.77;;
52618;SDS011;38513;53.234;6.568;2022-11-21T14:36:27;25.50;;;18.90;;
52618;SDS011;38513;53.234;6.568;2022-11-21T14:39:13;25.47;;;19.07;;
52618;SDS011;38513;53.234;6.568;2022-11-21T14:41:50;24.52;;;18.73;;
52618;SDS011;38513;53.234;6.568;2022-11-21T14:44:18;28.02;;;20.25;;
52618;SDS011;38513;53.234;6.568;2022-11-21T14:46:45;26.55;;;19.75;;
52618;SDS011;38513;53.234;6.568;2022-11-21T14:49:16;25.80;;;19.13;;
52618;SDS011;38513;53.234;6.568;2022-11-21T14:51:43;27.88;;;20.90;;
52618;SDS011;38513;53.234;6.568;2022-11-21T14:54:23;28.83;;;20.83;;
52618;SDS011;38513;53.234;6.568;2022-11-21T14:57:00;30.00;;;21.65;;
52618;SDS011;38513;53.234;6.568;2022-11-21T14:59:31;28.50;;;21.30;;
52618;SDS011;38513;53.234;6.568;2022-11-21T15:02:20;29.33;;;22.30;;
52618;SDS011;38513;53.234;6.568;2022-11-21T15:04:45;31.00;;;22.63;;
52618;SDS011;38513;53.234;6.568;2022-11-21T15:07:22;30.13;;;23.35;;
52618;SDS011;38513;53.234;6.568;2022-11-21T15:09:49;31.77;;;23.42;;
52618;SDS011;38513;53.234;6.568;2022-11-21T15:12:18;33.55;;;23.67;;
52618;SDS011;38513;53.234;6.568;2022-11-21T15:14:49;34.83;;;25.58;;
52618;SDS011;38513;53.234;6.568;2022-11-21T15:17:17;35.35;;;25.77;;
52618;SDS011;38513;53.234;6.568;2022-11-21T15:19:44;35.20;;;25.67;;
52618;SDS011;38513;53.234;6.568;2022-11-21T15:27:45;38.97;;;27.98;;
52618;SDS011;38513;53.234;6.568;2022-11-21T15:35:39;41.40;;;30.63;;
52618;SDS011;38513;53.234;6.568;2022-11-21T15:38:25;45.28;;;30.85;;
52618;SDS011;38513;53.234;6.568;2022-11-21T15:43:38;51.75;;;32.88;;
52618;SDS011;38513;53.234;6.568;2022-11-21T15:46:18;48.85;;;33.42;;
52618;SDS011;38513;53.234;6.568;2022-11-21T15:48:53;51.27;;;34.13;;
52618;SDS011;38513;53.234;6.568;2022-11-21T15:51:21;50.65;;;35.33;;
52618;SDS011;38513;53.234;6.568;2022-11-21T15:53:48;54.45;;;36.30;;
52618;SDS011;38513;53.234;6.568;2022-11-21T15:56:16;57.28;;;36.05;;
52618;SDS011;38513;53.234;6.568;2022-11-21T15:58:44;76.55;;;46.42;;
52618;SDS011;38513;53.234;6.568;2022-11-21T16:01:17;65.03;;;42.55;;
52618;SDS011;38513;53.234;6.568;2022-11-21T16:03:44;58.08;;;37.70;;
52618;SDS011;38513;53.234;6.568;2022-11-21T16:06:10;60.22;;;38.45;;
52618;SDS011;38513;53.234;6.568;2022-11-21T16:08:37;60.30;;;39.33;;
52618;SDS011;38513;53.234;6.568;2022-11-21T16:11:03;58.92;;;38.53;;
52618;SDS011;38513;53.234;6.568;2022-11-21T16:13:29;58.30;;;37.63;;
52618;SDS011;38513;53.234;6.568;2022-11-21T16:15:58;60.13;;;37.88;;
52618;SDS011;38513;53.234;6.568;2022-11-21T16:18:24;63.13;;;40.08;;
52618;SDS011;38513;53.234;6.568;2022-11-21T16:20:50;60.60;;;38.55;;
52618;SDS011;38513;53.234;6.568;2022-11-21T16:29:26;62.60;;;38.60;;
52618;SDS011;38513;53.234;6.568;2022-11-21T16:31:52;62.97;;;38.05;;
52618;SDS011;38513;53.234;6.568;2022-11-21T16:34:20;62.78;;;38.83;;
52618;SDS011;38513;53.234;6.568;2022-11-21T16:36:49;63.03;;;39.05;;
52618;SDS011;38513;53.234;6.568;2022-11-21T16:39:15;66.47;;;39.75;;